»·PEaware :: WAT306 P52-E68

WAT306 :: P52-E68

FLIGHT INFORMATION

Flight Status: Arrived
Operator:
Walker Air Transport
More flights by this operator :: More flights under this callsign
Pilot: Ethan S. (29221)
Aircraft: SOCATA TBM-900
(TBM9)
More flights by this aircraft type
Origin: P52 Cottonwood
United States
Destination: E68 Estrella Sailport
United States
More flights between these airports :: More routes between these airports
Route:
File this flight plan on PilotEdge
Remarks:
Altitude:
(Current/Filed)
11,500ft
Speed:
(Current/Filed)
250kts
Departed: 13-Oct-20 05:34 PM
Arrived: 13-Oct-20 06:03 PM
Distance/Time
Traveled:
0nm/0:29
Distance/Time
To Go:
Arrived

Flight Plot

Page will automatically refresh every two minutes.

Flight plan parsing failed; only flown route is shown


Map Options




Map Legend


Flown Route
Filed Route
Departure Airport
Arrival Airport
Navaid (VOR, NDB)
Fix

Horizontal Profiles

Position Reports

Time Latitude Longitude Heading Altitude Ground
Speed
13-Oct-20 17:19 34.733653 -112.038231 244 3532ft 0kts
13-Oct-20 17:19 34.733653 -112.038231 244 3532ft 0kts
13-Oct-20 17:20 34.733653 -112.038231 244 3532ft 0kts
13-Oct-20 17:21 34.733653 -112.038231 244 3532ft 0kts
13-Oct-20 17:22 34.733653 -112.038231 244 3532ft 0kts
13-Oct-20 17:23 34.733653 -112.038231 244 3532ft 0kts
13-Oct-20 17:24 34.733653 -112.038231 244 3532ft 0kts
13-Oct-20 17:25 34.733653 -112.038231 244 3532ft 0kts
13-Oct-20 17:26 34.733653 -112.038231 244 3532ft 0kts
13-Oct-20 17:27 34.733653 -112.038231 244 3532ft 0kts
13-Oct-20 17:28 34.733653 -112.038231 244 3532ft 0kts
13-Oct-20 17:29 34.733653 -112.038231 244 3532ft 0kts
13-Oct-20 17:30 34.733653 -112.038231 244 3532ft 0kts
13-Oct-20 17:31 34.733653 -112.038231 244 3532ft 0kts
13-Oct-20 17:32 34.735058 -112.038771 58 3526ft 7kts
13-Oct-20 17:33 34.726015 -112.032951 155 3589ft 109kts
13-Oct-20 17:34 34.688315 -112.025435 181 5206ft 148kts
13-Oct-20 17:35 34.646849 -112.028162 183 7191ft 148kts
13-Oct-20 17:36 34.604329 -112.031693 183 9003ft 158kts
13-Oct-20 17:37 34.560091 -112.035505 183 11361ft 161kts
13-Oct-20 17:38 34.500726 -112.040578 183 11541ft 246kts
13-Oct-20 17:39 34.427200 -112.046927 183 11519ft 267kts
13-Oct-20 17:40 34.350775 -112.053534 183 11518ft 271kts
13-Oct-20 17:41 34.274096 -112.060143 183 11520ft 272kts
13-Oct-20 17:42 34.196889 -112.066774 183 11468ft 274kts
13-Oct-20 17:43 34.119009 -112.073458 183 11342ft 275kts
13-Oct-20 17:44 34.041011 -112.080146 184 10868ft 275kts
13-Oct-20 17:45 33.967876 -112.086371 185 8787ft 247kts
13-Oct-20 17:46 33.902528 -112.107908 197 7035ft 226kts
13-Oct-20 17:47 33.842432 -112.128703 197 5482ft 216kts
13-Oct-20 17:48 33.788517 -112.147231 197 5275ft 198kts
13-Oct-20 17:49 33.731770 -112.168510 199 5543ft 222kts
13-Oct-20 17:50 33.670204 -112.192986 199 5062ft 218kts
13-Oct-20 17:51 33.613366 -112.208526 190 3504ft 189kts
13-Oct-20 17:52 33.561720 -112.222800 215 3493ft 203kts
13-Oct-20 17:53 33.514552 -112.268046 220 3478ft 216kts
13-Oct-20 17:54 33.459374 -112.296481 190 3475ft 215kts
13-Oct-20 17:55 33.397855 -112.309945 190 3675ft 206kts
13-Oct-20 17:56 33.339242 -112.322762 190 4487ft 231kts
13-Oct-20 17:57 33.276931 -112.332966 158 4432ft 188kts
13-Oct-20 17:58 33.236344 -112.299486 142 4471ft 171kts
13-Oct-20 17:59 33.197879 -112.264440 146 4463ft 164kts
13-Oct-20 18:00 33.147913 -112.273024 197 3477ft 178kts
13-Oct-20 18:01 33.112121 -112.269967 104 1289ft 128kts
13-Oct-20 18:02 33.109639 -112.259499 221 1267ft 0kts
13-Oct-20 18:03 33.109639 -112.259499 221 1267ft 0kts
13-Oct-20 18:04 33.109639 -112.259499 221 1267ft 0kts
13-Oct-20 18:05 33.109639 -112.259499 221 1267ft 0kts
13-Oct-20 18:06 33.109639 -112.259499 221 1267ft 0kts
13-Oct-20 18:07 34.733516 -112.038420 68 3533ft 0kts
13-Oct-20 18:08 34.733522 -112.038401 68 3533ft 0kts
13-Oct-20 18:09 34.733528 -112.038383 68 3533ft 0kts
13-Oct-20 18:10 34.733534 -112.038365 68 3533ft 0kts
13-Oct-20 18:11 34.733540 -112.038344 68 3532ft 0kts
13-Oct-20 18:12 34.733551 -112.038312 68 3532ft 0kts
13-Oct-20 18:13 34.733555 -112.038299 68 3532ft 0kts
13-Oct-20 18:14 34.733555 -112.038299 68 3532ft 0kts
13-Oct-20 18:15 34.733555 -112.038299 68 3532ft 0kts
13-Oct-20 18:16 34.733555 -112.038299 68 3532ft 0kts

Navigation Log

Ident Type
Flight plan parsing failed, navigation log unavailable